createdAt,value
2018-01-30T00:01:22.638Z,13.17
2018-01-30T00:03:50.188Z,12.07
2018-01-30T00:06:17.777Z,17.20
2018-01-30T00:08:45.946Z,10.83
2018-01-30T00:11:13.481Z,10.37
2018-01-30T00:13:41.069Z,13.43
2018-01-30T00:16:08.605Z,8.90
2018-01-30T00:18:36.173Z,15.13
2018-01-30T00:21:03.785Z,11.10
2018-01-30T00:23:45.585Z,12.97
2018-01-30T00:26:13.207Z,12.93
2018-01-30T00:28:40.795Z,8.47
2018-01-30T00:31:08.363Z,12.20
2018-01-30T00:33:36.701Z,14.53
2018-01-30T00:36:04.323Z,13.77
2018-01-30T00:38:31.855Z,15.57
2018-01-30T00:41:00.202Z,14.33
2018-01-30T00:43:34.372Z,12.67
2018-01-30T00:46:01.954Z,10.13
2018-01-30T00:48:29.484Z,8.80
2018-01-30T00:50:57.818Z,8.03
2018-01-30T00:53:26.386Z,11.90
2018-01-30T00:55:54.004Z,12.57
2018-01-30T00:58:22.375Z,17.20
2018-01-30T01:00:50.778Z,15.27
2018-01-30T01:03:19.097Z,13.17
2018-01-30T01:05:46.703Z,10.17
2018-01-30T01:08:14.257Z,14.50
2018-01-30T01:10:41.791Z,14.20
2018-01-30T01:13:12.980Z,11.33
2018-01-30T01:15:41.325Z,15.67
2018-01-30T01:18:08.887Z,11.30
2018-01-30T01:20:36.476Z,13.00
2018-01-30T01:23:05.893Z,11.23
2018-01-30T01:25:34.210Z,11.57
2018-01-30T01:28:01.786Z,16.60
2018-01-30T01:30:29.344Z,12.63
2018-01-30T01:32:58.250Z,13.93
2018-01-30T01:35:26.628Z,14.93
2018-01-30T01:37:54.167Z,14.83
2018-01-30T01:40:21.727Z,13.90
2018-01-30T01:42:50.365Z,12.70
2018-01-30T01:45:17.939Z,19.30
2018-01-30T01:47:46.254Z,15.63
2018-01-30T01:50:13.819Z,21.47
2018-01-30T01:52:42.334Z,15.13
2018-01-30T01:55:09.891Z,21.70
2018-01-30T01:57:37.455Z,22.67
2018-01-30T02:00:05.045Z,18.83
2018-01-30T02:02:35.804Z,18.33
2018-01-30T02:05:03.352Z,18.37
2018-01-30T02:07:31.664Z,21.77
2018-01-30T02:09:59.292Z,22.00
2018-01-30T02:12:27.838Z,22.00
2018-01-30T02:14:56.091Z,16.83
2018-01-30T02:17:23.660Z,19.27
2018-01-30T02:19:51.203Z,18.93
2018-01-30T02:22:18.860Z,23.33
2018-01-30T02:24:46.423Z,24.63
2018-01-30T02:27:14.033Z,20.67
2018-01-30T02:29:41.621Z,21.67
2018-01-30T02:32:09.159Z,20.73
2018-01-30T02:34:37.711Z,20.67
2018-01-30T02:37:05.291Z,17.33
2018-01-30T02:39:32.855Z,24.87
2018-01-30T02:42:00.412Z,21.90
2018-01-30T02:44:29.012Z,26.03
2018-01-30T02:46:56.549Z,23.37
2018-01-30T02:49:24.080Z,25.67
2018-01-30T02:51:51.682Z,22.87
2018-01-30T02:54:19.232Z,26.70
2018-01-30T02:56:46.774Z,24.00
2018-01-30T02:59:14.335Z,24.57
2018-01-30T03:01:42.460Z,26.83
2018-01-30T03:04:10.017Z,27.73
2018-01-30T03:06:37.586Z,23.20
2018-01-30T03:09:05.166Z,23.33
2018-01-30T03:11:32.744Z,22.33
2018-01-30T03:14:01.082Z,22.63
2018-01-30T03:16:28.631Z,23.07
2018-01-30T03:18:56.169Z,31.23
2018-01-30T03:21:23.755Z,33.27
2018-01-30T03:23:52.313Z,32.23
2018-01-30T03:26:19.867Z,32.00
2018-01-30T03:28:47.443Z,24.63
2018-01-30T03:31:15.759Z,26.93
2018-01-30T03:33:46.457Z,24.07
2018-01-30T03:36:14.035Z,26.13
2018-01-30T03:38:41.657Z,26.57
2018-01-30T03:41:09.994Z,22.97
2018-01-30T03:43:45.068Z,22.90
2018-01-30T03:46:13.405Z,21.67
2018-01-30T03:48:41.010Z,20.10
2018-01-30T03:51:08.641Z,20.77
2018-01-30T03:53:37.206Z,25.00
2018-01-30T03:56:04.763Z,22.40
2018-01-30T03:58:32.339Z,19.07
2018-01-30T04:00:59.883Z,24.10
2018-01-30T04:03:28.473Z,24.93
2018-01-30T04:05:56.033Z,22.80
2018-01-30T04:08:23.587Z,25.13
2018-01-30T04:10:51.182Z,28.93
2018-01-30T04:13:18.762Z,22.37
2018-01-30T04:15:46.308Z,22.93
2018-01-30T04:18:13.919Z,22.30
2018-01-30T04:20:41.453Z,22.27
2018-01-30T04:23:09.776Z,24.50
2018-01-30T04:25:37.368Z,20.80
2018-01-30T04:28:04.946Z,22.00
2018-01-30T04:30:33.330Z,22.30
2018-01-30T04:33:00.904Z,25.73
2018-01-30T04:35:28.498Z,26.50
2018-01-30T04:37:56.020Z,19.40
2018-01-30T04:40:23.607Z,23.60
2018-01-30T04:42:51.197Z,21.30
2018-01-30T04:45:18.753Z,21.93
2018-01-30T04:47:46.333Z,25.60
2018-01-30T04:50:13.915Z,24.00
2018-01-30T04:52:55.133Z,25.70
2018-01-30T04:55:22.669Z,23.70
2018-01-30T04:57:50.258Z,20.40
2018-01-30T05:00:18.592Z,23.47
2018-01-30T05:02:46.186Z,24.43
2018-01-30T05:05:14.508Z,23.17
2018-01-30T05:07:42.066Z,25.93
2018-01-30T05:10:09.626Z,21.80
2018-01-30T05:12:38.225Z,20.90
2018-01-30T05:15:05.802Z,25.50
2018-01-30T05:17:35.486Z,24.87
2018-01-30T05:20:03.075Z,20.07
2018-01-30T05:22:30.650Z,23.40
2018-01-30T05:24:58.189Z,21.77
2018-01-30T05:27:25.741Z,19.63
2018-01-30T05:29:53.335Z,23.60
2018-01-30T05:32:20.909Z,24.83
2018-01-30T05:34:48.469Z,22.30
2018-01-30T05:37:16.055Z,21.83
2018-01-30T05:39:43.645Z,23.20
2018-01-30T05:42:11.698Z,24.57
2018-01-30T05:44:42.591Z,23.17
2018-01-30T05:47:11.074Z,28.20
2018-01-30T05:49:38.638Z,30.13
2018-01-30T05:52:06.476Z,21.13
2018-01-30T05:54:34.034Z,21.57
2018-01-30T05:57:01.605Z,23.37
2018-01-30T05:59:29.220Z,27.80
2018-01-30T06:01:57.536Z,34.57
2018-01-30T06:04:28.023Z,32.93
2018-01-30T06:06:56.351Z,30.83
2018-01-30T06:09:23.904Z,34.53
2018-01-30T06:11:51.491Z,27.83
2018-01-30T06:14:20.078Z,30.37
2018-01-30T06:16:47.645Z,24.33
2018-01-30T06:19:15.193Z,23.83
2018-01-30T06:21:42.767Z,19.37
2018-01-30T06:24:10.315Z,23.80
2018-01-30T06:26:37.899Z,29.87
2018-01-30T06:29:05.512Z,25.67
2018-01-30T06:31:33.105Z,23.30
2018-01-30T06:34:00.644Z,30.53
2018-01-30T06:36:28.248Z,23.97
2018-01-30T06:38:55.842Z,28.60
2018-01-30T06:41:23.394Z,30.87
2018-01-30T06:43:51.692Z,27.73
2018-01-30T06:46:19.301Z,29.57
2018-01-30T06:48:46.858Z,26.27
2018-01-30T06:51:14.407Z,27.20
2018-01-30T06:53:42.177Z,27.97
2018-01-30T06:56:09.754Z,22.03
2018-01-30T06:58:37.311Z,25.33
2018-01-30T07:01:05.021Z,29.57
2018-01-30T07:03:33.361Z,25.17
2018-01-30T07:06:00.969Z,22.53
2018-01-30T07:08:29.289Z,28.10
2018-01-30T07:10:56.886Z,30.30
2018-01-30T07:13:35.381Z,26.70
2018-01-30T07:16:02.954Z,22.43
2018-01-30T07:18:31.670Z,22.07
2018-01-30T07:21:00.027Z,24.23
2018-01-30T07:23:27.620Z,31.40
2018-01-30T07:25:55.232Z,25.70
2018-01-30T07:28:22.839Z,25.40
2018-01-30T07:30:51.156Z,27.87
2018-01-30T07:33:18.748Z,27.43
2018-01-30T07:35:46.329Z,24.23
2018-01-30T07:38:13.879Z,28.63
2018-01-30T07:40:41.429Z,30.23
2018-01-30T07:43:11.079Z,28.97
2018-01-30T07:45:39.387Z,23.93
2018-01-30T07:48:06.981Z,24.80
2018-01-30T07:50:34.608Z,25.00
2018-01-30T07:53:05.355Z,22.73
2018-01-30T07:55:34.448Z,22.27
2018-01-30T07:58:01.994Z,27.73
2018-01-30T08:00:29.579Z,26.93
2018-01-30T08:02:59.114Z,27.27
2018-01-30T08:05:26.676Z,29.00
2018-01-30T08:07:54.246Z,28.63
2018-01-30T08:10:21.816Z,27.07
2018-01-30T08:15:45.171Z,25.27
2018-01-30T08:18:12.782Z,29.20
2018-01-30T08:20:41.097Z,27.10
2018-01-30T08:23:14.895Z,26.20
2018-01-30T08:25:42.437Z,27.83
2018-01-30T08:28:10.004Z,30.17
2018-01-30T08:30:37.679Z,26.50
2018-01-30T08:33:12.334Z,32.77
2018-01-30T08:35:40.363Z,29.33
2018-01-30T08:38:08.679Z,26.43
2018-01-30T08:40:36.234Z,31.50
2018-01-30T08:43:04.864Z,29.43
2018-01-30T08:45:32.418Z,31.47
2018-01-30T08:47:59.954Z,29.60
2018-01-30T08:50:27.618Z,28.60
2018-01-30T08:52:59.269Z,30.93
2018-01-30T08:55:27.624Z,31.10
2018-01-30T08:57:57.742Z,27.40
2018-01-30T09:00:25.397Z,32.53
2018-01-30T09:02:54.964Z,35.30
2018-01-30T09:05:23.393Z,36.80
2018-01-30T09:07:50.963Z,33.47
2018-01-30T09:10:18.485Z,29.20
2018-01-30T09:12:46.123Z,24.20
2018-01-30T09:15:13.754Z,26.73
2018-01-30T09:17:41.308Z,29.07
2018-01-30T09:20:08.848Z,30.27
2018-01-30T09:22:39.714Z,26.03
2018-01-30T09:25:10.670Z,30.57
2018-01-30T09:27:39.170Z,24.93
2018-01-30T09:30:06.738Z,30.10
2018-01-30T09:32:39.906Z,24.70
2018-01-30T09:35:07.762Z,22.80
2018-01-30T09:37:35.417Z,23.97
2018-01-30T09:40:03.063Z,20.43
2018-01-30T09:42:30.602Z,18.77
2018-01-30T09:44:58.805Z,21.03
2018-01-30T09:47:27.161Z,18.60
2018-01-30T09:49:57.277Z,22.83
2018-01-30T09:52:42.373Z,27.60
2018-01-30T09:55:11.447Z,20.43
2018-01-30T09:57:38.995Z,32.33
2018-01-30T10:00:06.724Z,23.03
2018-01-30T10:02:34.310Z,26.70
2018-01-30T10:05:01.868Z,18.50
2018-01-30T10:07:31.040Z,25.60
2018-01-30T10:09:58.689Z,21.10
2018-01-30T10:12:31.212Z,17.93
2018-01-30T10:15:01.580Z,20.60
2018-01-30T10:17:29.311Z,19.13
2018-01-30T10:19:56.909Z,16.97
2018-01-30T10:22:25.430Z,16.93
2018-01-30T10:24:52.988Z,19.03
2018-01-30T10:27:20.628Z,20.07
2018-01-30T10:29:49.967Z,28.37
2018-01-30T10:32:18.177Z,78.73
2018-01-30T10:34:45.743Z,64.13
2018-01-30T10:37:14.645Z,19.97
2018-01-30T10:39:42.287Z,26.77
2018-01-30T10:42:09.833Z,19.03
2018-01-30T10:44:39.329Z,20.47
2018-01-30T10:47:06.933Z,20.17
2018-01-30T10:49:34.486Z,16.90
2018-01-30T10:52:02.087Z,16.83
2018-01-30T10:54:30.480Z,17.03
2018-01-30T10:56:58.769Z,16.57
2018-01-30T10:59:26.360Z,20.23
2018-01-30T11:01:53.940Z,17.17
2018-01-30T11:04:28.322Z,20.87
2018-01-30T11:06:55.926Z,16.47
2018-01-30T11:09:23.487Z,18.73
2018-01-30T11:11:51.047Z,20.37
2018-01-30T11:14:33.387Z,18.77
2018-01-30T11:17:01.696Z,17.27
2018-01-30T11:19:30.199Z,22.43
2018-01-30T11:21:57.929Z,18.47
2018-01-30T11:24:28.937Z,18.87
2018-01-30T11:26:56.491Z,19.57
2018-01-30T11:29:24.146Z,20.63
2018-01-30T11:31:52.829Z,15.10
2018-01-30T11:34:22.463Z,16.50
2018-01-30T11:36:50.034Z,14.67
2018-01-30T11:39:17.636Z,13.20
2018-01-30T11:41:45.168Z,13.80
2018-01-30T11:44:13.192Z,13.57
2018-01-30T11:46:40.778Z,16.07
2018-01-30T11:49:08.326Z,13.07
2018-01-30T11:51:35.892Z,15.90
2018-01-30T11:54:04.690Z,17.43
2018-01-30T11:56:33.052Z,17.07
2018-01-30T11:59:00.693Z,20.37
2018-01-30T12:01:28.341Z,18.93
2018-01-30T12:03:57.935Z,16.47
2018-01-30T12:06:25.574Z,18.20
2018-01-30T12:08:53.157Z,17.97
2018-01-30T12:11:20.731Z,18.50
2018-01-30T12:13:49.297Z,18.93
2018-01-30T12:16:17.592Z,19.20
2018-01-30T12:18:45.945Z,16.83
2018-01-30T12:21:13.563Z,18.37
2018-01-30T12:23:49.492Z,18.73
2018-01-30T12:26:17.073Z,21.53
2018-01-30T12:28:45.398Z,17.30
2018-01-30T12:31:12.932Z,16.60
2018-01-30T12:33:43.888Z,14.93
2018-01-30T12:36:11.430Z,18.20
2018-01-30T12:38:38.963Z,15.57
2018-01-30T12:41:06.576Z,16.53
2018-01-30T12:43:34.169Z,18.70
2018-01-30T12:46:01.718Z,18.50
2018-01-30T12:48:29.340Z,17.90
2018-01-30T12:50:57.710Z,15.20
2018-01-30T12:53:26.193Z,19.50
2018-01-30T12:55:53.790Z,19.00
2018-01-30T12:58:21.317Z,19.50
2018-01-30T13:00:48.863Z,19.63
2018-01-30T13:03:16.512Z,17.93
2018-01-30T13:05:44.820Z,25.47
2018-01-30T13:08:13.235Z,28.87
2018-01-30T13:10:40.799Z,25.13
2018-01-30T13:13:08.370Z,22.20
2018-01-30T13:15:35.920Z,20.77
2018-01-30T13:18:03.526Z,19.07
2018-01-30T13:20:31.110Z,17.37
2018-01-30T13:23:10.681Z,18.43
2018-01-30T13:25:38.254Z,18.40
2018-01-30T13:28:05.950Z,23.83
2018-01-30T13:30:33.550Z,23.33
2018-01-30T13:33:03.049Z,25.37
2018-01-30T13:35:30.627Z,16.77
2018-01-30T13:37:58.215Z,21.17
2018-01-30T13:40:25.865Z,19.73
2018-01-30T13:42:54.478Z,21.90
2018-01-30T13:45:22.820Z,22.73
2018-01-30T13:47:51.807Z,20.13
2018-01-30T13:50:20.164Z,19.00
2018-01-30T13:52:48.490Z,19.90
2018-01-30T13:55:16.948Z,24.40
2018-01-30T13:57:44.580Z,25.47
2018-01-30T14:00:12.136Z,23.37
2018-01-30T14:02:41.506Z,25.00
2018-01-30T14:05:09.088Z,23.37
2018-01-30T14:07:37.455Z,25.23
2018-01-30T14:10:05.080Z,29.87
2018-01-30T14:12:32.689Z,35.17
2018-01-30T14:15:01.973Z,27.63
2018-01-30T14:17:29.546Z,23.53
2018-01-30T14:19:57.134Z,28.70
2018-01-30T14:22:25.452Z,27.47
2018-01-30T14:24:53.011Z,21.73
2018-01-30T14:27:20.587Z,23.00
2018-01-30T14:29:48.140Z,22.63
2018-01-30T14:32:15.740Z,19.53
2018-01-30T14:34:44.270Z,21.17
2018-01-30T14:37:11.834Z,16.63
2018-01-30T14:39:39.404Z,17.53
2018-01-30T14:42:06.998Z,23.10
2018-01-30T14:44:34.618Z,24.73
2018-01-30T14:47:02.152Z,19.87
2018-01-30T14:49:29.732Z,20.20
2018-01-30T14:51:57.375Z,23.30
2018-01-30T14:54:31.829Z,19.43
2018-01-30T14:56:59.391Z,18.93
2018-01-30T14:59:26.976Z,22.13
2018-01-30T15:01:54.601Z,22.37
2018-01-30T15:04:29.892Z,21.30
2018-01-30T15:06:57.357Z,20.87
2018-01-30T15:09:24.985Z,23.23
2018-01-30T15:11:52.584Z,21.80
2018-01-30T15:14:21.210Z,20.70
2018-01-30T15:16:49.515Z,19.13
2018-01-30T15:19:17.115Z,20.97
2018-01-30T15:21:44.674Z,19.13
2018-01-30T15:24:17.228Z,17.87
2018-01-30T15:26:44.790Z,19.47
2018-01-30T15:29:12.342Z,20.33
2018-01-30T15:31:39.954Z,30.27
2018-01-30T15:34:15.464Z,22.73
2018-01-30T15:36:43.102Z,25.97
2018-01-30T15:39:10.650Z,18.83
2018-01-30T15:41:38.232Z,20.73
2018-01-30T15:44:06.599Z,19.37
2018-01-30T15:46:34.150Z,22.37
2018-01-30T15:49:01.744Z,22.90
2018-01-30T15:51:29.311Z,20.63
2018-01-30T15:53:56.908Z,25.47
2018-01-30T15:56:25.167Z,22.13
2018-01-30T15:58:52.744Z,21.43
2018-01-30T16:01:20.288Z,24.70
2018-01-30T16:04:04.445Z,20.47
2018-01-30T16:06:31.986Z,22.47
2018-01-30T16:08:59.550Z,25.07
2018-01-30T16:11:27.992Z,22.43
2018-01-30T16:14:00.414Z,20.77
2018-01-30T16:16:28.110Z,24.63
2018-01-30T16:18:55.709Z,29.20
2018-01-30T16:21:23.392Z,28.27
2018-01-30T16:23:52.939Z,24.63
2018-01-30T16:26:20.590Z,26.90
2018-01-30T16:28:48.153Z,27.67
2018-01-30T16:31:15.783Z,28.33
2018-01-30T16:33:45.097Z,26.80
2018-01-30T16:36:12.753Z,26.80
2018-01-30T16:38:40.397Z,27.30
2018-01-30T16:41:08.002Z,29.63
2018-01-30T16:43:35.580Z,31.03
2018-01-30T16:46:03.163Z,28.03
2018-01-30T16:48:31.526Z,30.27
2018-01-30T16:50:59.071Z,27.20
2018-01-30T16:53:28.724Z,32.17
2018-01-30T16:55:57.074Z,28.97
2018-01-30T16:58:24.662Z,31.53
2018-01-30T17:00:53.761Z,29.63
2018-01-30T17:03:22.632Z,26.13
2018-01-30T17:05:50.232Z,30.10
2018-01-30T17:08:17.879Z,27.23
2018-01-30T17:10:46.302Z,30.57
2018-01-30T17:13:14.931Z,28.13
2018-01-30T17:15:42.524Z,30.93
2018-01-30T17:18:10.069Z,29.00
2018-01-30T17:20:38.513Z,34.63
2018-01-30T17:23:14.098Z,41.27
2018-01-30T17:25:41.688Z,39.43
2018-01-30T17:28:09.258Z,36.60
2018-01-30T17:30:37.643Z,41.60
2018-01-30T17:33:05.244Z,40.27
2018-01-30T17:35:32.820Z,41.63
2018-01-30T17:38:00.367Z,42.70
2018-01-30T17:40:27.966Z,43.83
2018-01-30T17:42:56.473Z,41.27
2018-01-30T17:45:24.802Z,38.60
2018-01-30T17:47:52.425Z,43.93
2018-01-30T17:50:19.999Z,42.73
2018-01-30T17:52:47.622Z,39.73
2018-01-30T17:55:16.001Z,40.10
2018-01-30T17:57:43.565Z,39.53
2018-01-30T18:00:11.139Z,40.13
2018-01-30T18:02:38.704Z,40.57
2018-01-30T18:05:06.275Z,39.20
2018-01-30T18:07:34.517Z,40.87
2018-01-30T18:10:02.100Z,42.33
2018-01-30T18:12:29.678Z,38.07
2018-01-30T18:14:57.256Z,38.03
2018-01-30T18:17:25.656Z,43.73
2018-01-30T19:06:01.686Z,64.40
2018-01-30T19:08:30.048Z,77.10
2018-01-30T19:10:57.672Z,58.57
2018-01-30T19:13:25.214Z,44.50
2018-01-30T19:15:52.756Z,47.70
2018-01-30T19:18:20.316Z,44.10
2018-01-30T19:20:49.351Z,41.53
2018-01-30T19:23:16.913Z,43.67
2018-01-30T19:25:44.531Z,44.97
2018-01-30T19:28:12.649Z,43.77
2018-01-30T19:30:40.227Z,39.83
2018-01-30T19:33:07.797Z,45.73
2018-01-30T19:35:37.376Z,43.90
2018-01-30T19:38:04.966Z,43.37
2018-01-30T19:40:32.584Z,47.50
2018-01-30T19:43:00.184Z,43.77
2018-01-30T19:45:37.674Z,42.90
2018-01-30T19:48:06.834Z,43.57
2018-01-30T19:50:34.410Z,42.47
2018-01-30T19:53:02.118Z,44.10
2018-01-30T19:55:39.862Z,46.17
2018-01-30T19:58:07.527Z,35.63
2018-01-30T20:00:35.090Z,42.73
2018-01-30T20:03:02.662Z,38.30
2018-01-30T20:05:30.230Z,41.80
2018-01-30T20:07:57.793Z,39.20
2018-01-30T20:10:25.347Z,38.93
2018-01-30T20:12:53.535Z,38.53
2018-01-30T20:15:23.029Z,35.53
2018-01-30T20:17:50.585Z,40.43
2018-01-30T20:20:18.744Z,39.13
2018-01-30T20:22:47.063Z,40.83
2018-01-30T20:25:14.653Z,39.67
2018-01-30T20:27:42.272Z,43.27
2018-01-30T20:30:09.854Z,39.23
2018-01-30T20:32:37.432Z,40.77
2018-01-30T20:35:05.069Z,46.23
2018-01-30T20:37:32.654Z,40.90
2018-01-30T20:40:00.424Z,42.67
2018-01-30T20:42:28.052Z,44.57
2018-01-30T20:44:55.653Z,48.03
2018-01-30T20:47:23.280Z,44.80
2018-01-30T20:49:50.856Z,43.17
2018-01-30T20:52:18.407Z,43.43
2018-01-30T20:54:48.085Z,42.73
2018-01-30T20:57:16.451Z,41.70
2018-01-30T20:59:44.643Z,40.43
2018-01-30T21:02:13.026Z,43.40
2018-01-30T21:04:43.314Z,54.17
2018-01-30T21:07:11.711Z,42.27
2018-01-30T21:09:41.248Z,46.97
2018-01-30T21:12:08.844Z,41.40
2018-01-30T21:14:37.310Z,48.23
2018-01-30T21:17:06.434Z,45.67
2018-01-30T21:19:33.974Z,44.60
2018-01-30T21:22:01.549Z,42.77
2018-01-30T21:24:29.176Z,47.67
2018-01-30T21:26:57.594Z,46.13
2018-01-30T21:29:25.153Z,47.30
2018-01-30T21:31:52.735Z,43.53
2018-01-30T21:34:20.295Z,41.00
2018-01-30T21:36:47.876Z,41.53
2018-01-30T21:39:15.927Z,44.10
2018-01-30T21:41:43.593Z,40.20
2018-01-30T21:44:11.202Z,41.50
2018-01-30T21:46:41.935Z,42.50
2018-01-30T21:49:09.454Z,42.53
2018-01-30T21:51:37.054Z,36.57
2018-01-30T21:54:06.145Z,40.10
2018-01-30T21:56:34.703Z,39.73
2018-01-30T21:59:02.288Z,45.87
2018-01-30T22:01:30.672Z,38.23
2018-01-30T22:03:59.976Z,44.80
2018-01-30T22:06:28.297Z,43.40
2018-01-30T22:08:55.968Z,46.23
2018-01-30T22:11:26.398Z,40.83
2018-01-30T22:13:54.801Z,44.40
2018-01-30T22:16:22.404Z,42.90
2018-01-30T22:18:50.807Z,44.17
2018-01-30T22:21:18.615Z,42.37
2018-01-30T22:23:46.543Z,40.83
2018-01-30T22:26:16.121Z,43.10
2018-01-30T22:28:43.714Z,47.00
2018-01-30T22:31:11.289Z,46.87
2018-01-30T22:33:38.864Z,43.63
2018-01-30T22:36:06.465Z,42.80
2018-01-30T22:38:34.815Z,38.67
2018-01-30T22:41:02.398Z,45.07
2018-01-30T22:43:29.958Z,40.03
2018-01-30T22:45:58.520Z,45.67
